Time;durP1;ratioP1;P1;durP2;ratioP2;P2;SDS_P1;SDS_P2;PMS_P1;PMS_P2;Temp;Humidity;BMP_temperature;BMP_pressure;BME280_temperature;BME280_humidity;BME280_pressure;Samples;Min_cycle;Max_cycle;Signal;HPM_P1;HPM_P2
2023/04/26 00:00:42;;;;;;;10.27;8.50;;;8.50;99.90;;;;;;5059417;28;20192;-90
2023/04/26 00:03:08;;;;;;;8.87;8.07;;;8.40;99.90;;;;;;5058442;28;20638;-89
2023/04/26 00:05:36;;;;;;;9.30;8.50;;;8.40;99.90;;;;;;5058381;28;20181;-91
2023/04/26 00:08:03;;;;;;;9.43;8.63;;;8.40;99.90;;;;;;5059176;28;20258;-90
2023/04/26 00:10:29;;;;;;;9.03;8.23;;;8.40;99.90;;;;;;5059098;28;20192;-90
2023/04/26 00:12:54;;;;;;;8.23;7.43;;;8.50;99.90;;;;;;5059541;28;20188;-89
2023/04/26 00:15:20;;;;;;;10.07;9.10;;;8.50;99.90;;;;;;5059368;28;20254;-90
2023/04/26 00:17:46;;;;;;;9.97;9.07;;;8.40;99.90;;;;;;5058807;28;20191;-89
2023/04/26 00:20:12;;;;;;;10.03;9.13;;;8.30;99.90;;;;;;5040762;28;20388;-89
2023/04/26 00:22:38;;;;;;;9.17;8.27;;;8.20;99.90;;;;;;5058506;28;20259;-89
2023/04/26 00:25:04;;;;;;;9.50;8.50;;;8.20;99.90;;;;;;5058809;28;20176;-90
2023/04/26 00:27:30;;;;;;;10.77;9.77;;;8.20;99.90;;;;;;5058339;28;20195;-90
2023/04/26 00:29:56;;;;;;;10.67;9.70;;;8.20;99.90;;;;;;5058016;28;20651;-92
2023/04/26 00:32:21;;;;;;;10.53;9.63;;;8.20;99.90;;;;;;5039296;28;20224;-92
2023/04/26 00:34:47;;;;;;;10.90;9.87;;;8.20;99.90;;;;;;5057447;28;20634;-89
2023/04/26 00:37:13;;;;;;;10.53;9.53;;;8.10;99.90;;;;;;5056488;28;20184;-90
2023/04/26 00:39:39;;;;;;;8.50;7.80;;;8.00;99.90;;;;;;5038138;28;20181;-90
2023/04/26 00:42:04;;;;;;;10.00;9.07;;;8.00;99.90;;;;;;5057683;28;20197;-92
2023/04/26 00:44:30;;;;;;;10.73;9.70;;;8.00;99.90;;;;;;5057065;28;20259;-92
2023/04/26 00:46:56;;;;;;;10.20;9.30;;;7.80;99.90;;;;;;5039845;28;20207;-90
2023/04/26 00:49:24;;;;;;;10.40;9.40;;;7.90;99.90;;;;;;5057637;28;20180;-92
2023/04/26 00:51:51;;;;;;;9.50;8.60;;;7.80;99.90;;;;;;5040597;28;20208;-90
2023/04/26 00:54:19;;;;;;;9.27;8.37;;;7.80;99.90;;;;;;5040170;28;20208;-91
2023/04/26 00:56:45;;;;;;;8.73;7.93;;;7.80;99.90;;;;;;5058383;28;20208;-89
2023/04/26 00:59:10;;;;;;;8.33;7.60;;;7.60;99.90;;;;;;5058000;28;20176;-89
2023/04/26 01:01:36;;;;;;;10.33;8.60;;;7.60;99.90;;;;;;5058676;28;20248;-90
2023/04/26 01:04:03;;;;;;;9.17;8.27;;;7.50;99.90;;;;;;5057904;28;20172;-90
2023/04/26 01:06:35;;;;;;;9.77;8.77;;;7.50;99.90;;;;;;5062631;28;20187;-90
2023/04/26 01:09:08;;;;;;;8.70;7.90;;;7.60;99.90;;;;;;5064755;28;20176;-89
2023/04/26 01:11:35;;;;;;;7.87;7.17;;;7.60;99.90;;;;;;5057841;28;20702;-88
2023/04/26 01:14:02;;;;;;;9.73;8.83;;;7.60;99.90;;;;;;5056858;28;20877;-90
2023/04/26 01:16:29;;;;;;;8.33;7.63;;;7.50;99.90;;;;;;5039129;28;20199;-90
2023/04/26 01:18:55;;;;;;;8.80;8.00;;;7.60;99.90;;;;;;5057030;28;20255;-89
2023/04/26 01:21:23;;;;;;;8.03;7.40;;;7.50;99.90;;;;;;5057286;28;20199;-89
2023/04/26 01:23:50;;;;;;;9.93;8.47;;;7.60;99.90;;;;;;5056363;28;20195;-91
2023/04/26 01:26:15;;;;;;;8.43;7.73;;;7.60;99.90;;;;;;5055233;28;20267;-92
2023/04/26 01:28:41;;;;;;;8.63;7.80;;;7.60;99.90;;;;;;5038139;28;20184;-89
2023/04/26 01:31:07;;;;;;;8.30;7.60;;;7.70;99.90;;;;;;5056430;28;20208;-90
2023/04/26 01:33:32;;;;;;;9.03;8.10;;;7.70;99.90;;;;;;5037395;28;20185;-91
2023/04/26 01:35:58;;;;;;;9.23;8.43;;;7.70;99.90;;;;;;5054907;28;20250;-92
2023/04/26 01:38:24;;;;;;;8.43;7.73;;;7.70;99.90;;;;;;5037257;28;20176;-90
2023/04/26 01:40:50;;;;;;;8.70;8.00;;;7.70;99.90;;;;;;5047542;28;20286;-89
2023/04/26 01:43:18;;;;;;;8.27;7.47;;;7.70;99.90;;;;;;5085440;28;20183;-92
2023/04/26 01:45:47;;;;;;;9.03;8.17;;;7.60;99.90;;;;;;5078817;28;20203;-89
2023/04/26 01:48:12;;;;;;;9.50;8.60;;;7.50;99.90;;;;;;5070181;28;20586;-90
2023/04/26 01:50:38;;;;;;;8.90;8.10;;;7.50;99.90;;;;;;5056392;28;20200;-90
2023/04/26 01:53:04;;;;;;;8.77;7.97;;;7.40;99.90;;;;;;5037768;28;20180;-89
2023/04/26 01:55:29;;;;;;;9.83;7.97;;;7.10;99.90;;;;;;5055113;28;20207;-90
2023/04/26 01:57:55;;;;;;;8.77;8.00;;;7.10;99.90;;;;;;5055551;28;20182;-90
2023/04/26 02:00:21;;;;;;;8.67;7.87;;;7.10;99.90;;;;;;5057114;28;20223;-90
2023/04/26 02:02:46;;;;;;;10.13;7.53;;;7.10;99.90;;;;;;5055779;28;20168;-90
2023/04/26 02:05:12;;;;;;;9.13;8.30;;;7.00;99.90;;;;;;5055842;28;20184;-90
2023/04/26 02:07:37;;;;;;;9.00;8.13;;;7.00;99.90;;;;;;5056369;28;20180;-89
2023/04/26 02:10:04;;;;;;;8.17;7.37;;;7.00;99.90;;;;;;5056167;28;20191;-89
2023/04/26 02:12:29;;;;;;;8.93;8.03;;;6.90;99.90;;;;;;5056742;28;20211;-89
2023/04/26 02:14:55;;;;;;;8.10;7.40;;;7.00;99.90;;;;;;5057902;28;20678;-91
2023/04/26 02:17:21;;;;;;;7.93;7.23;;;7.00;99.90;;;;;;5061360;28;20173;-91
2023/04/26 02:19:47;;;;;;;6.83;6.23;;;6.90;99.90;;;;;;5040014;28;20256;-90
2023/04/26 02:22:12;;;;;;;7.47;6.77;;;6.90;99.90;;;;;;5055220;28;20223;-90
2023/04/26 02:24:38;;;;;;;8.13;7.33;;;6.90;99.90;;;;;;5053015;28;20561;-90
2023/04/26 02:27:04;;;;;;;9.00;8.10;;;6.80;99.90;;;;;;5054562;28;20743;-90
2023/04/26 02:29:30;;;;;;;9.13;7.97;;;6.80;99.90;;;;;;5037980;28;20594;-90
2023/04/26 02:31:57;;;;;;;10.53;9.43;;;6.80;99.90;;;;;;5055810;28;20222;-90
2023/04/26 02:34:23;;;;;;;9.23;8.33;;;6.80;99.90;;;;;;5054958;28;20212;-91
2023/04/26 02:36:48;;;;;;;8.60;7.80;;;6.80;99.90;;;;;;5055118;28;20188;-89
2023/04/26 02:39:14;;;;;;;7.40;6.63;;;6.80;99.90;;;;;;5054976;28;20184;-90
2023/04/26 02:41:40;;;;;;;7.87;7.07;;;6.80;99.90;;;;;;5053004;28;20203;-90
2023/04/26 02:44:06;;;;;;;8.90;5.93;;;6.80;99.90;;;;;;5071950;28;20241;-91
2023/04/26 02:46:32;;;;;;;10.80;6.50;;;6.70;99.90;;;;;;5055713;28;20198;-89
2023/04/26 02:48:57;;;;;;;17.60;5.83;;;6.60;99.90;;;;;;5055282;28;20650;-93
2023/04/26 02:51:23;;;;;;;10.90;5.70;;;6.50;99.90;;;;;;5056848;28;20291;-86
2023/04/26 02:53:48;;;;;;;8.57;4.93;;;6.60;99.90;;;;;;5055763;28;20180;-90
2023/04/26 02:56:18;;;;;;;17.10;5.80;;;6.60;99.90;;;;;;5036658;28;20186;-89
2023/04/26 02:58:44;;;;;;;10.07;4.80;;;6.50;99.90;;;;;;5055394;28;20259;-90
2023/04/26 03:01:11;;;;;;;4.40;4.10;;;6.40;99.90;;;;;;5055297;28;20223;-89
2023/04/26 03:03:37;;;;;;;4.47;4.07;;;6.50;99.90;;;;;;5037885;28;20243;-90
2023/04/26 03:06:03;;;;;;;5.70;4.30;;;6.50;99.90;;;;;;5037449;28;20207;-91
2023/04/26 03:08:28;;;;;;;9.10;4.43;;;6.50;99.90;;;;;;5054963;28;20176;-90
2023/04/26 03:10:54;;;;;;;4.77;4.47;;;6.60;99.90;;;;;;5056594;28;20195;-89
2023/04/26 03:13:22;;;;;;;14.80;5.13;;;6.60;99.90;;;;;;5049024;28;20538;-90
2023/04/26 03:15:48;;;;;;;4.83;4.43;;;6.60;99.90;;;;;;5060857;28;20222;-92
2023/04/26 03:18:14;;;;;;;7.43;4.23;;;6.60;99.90;;;;;;5058650;28;20195;-90
2023/04/26 03:20:41;;;;;;;4.80;4.30;;;6.70;99.90;;;;;;5038237;28;20232;-91
2023/04/26 03:23:06;;;;;;;4.93;4.53;;;6.70;99.90;;;;;;5054756;28;20196;-89
2023/04/26 03:25:33;;;;;;;9.33;4.80;;;6.70;99.90;;;;;;5036007;28;20184;-90
2023/04/26 03:27:59;;;;;;;5.03;4.63;;;6.60;99.90;;;;;;5035221;28;20191;-90
2023/04/26 03:30:24;;;;;;;5.20;4.70;;;6.50;99.90;;;;;;5056683;28;20211;-90
2023/04/26 03:32:51;;;;;;;6.33;4.97;;;6.50;99.90;;;;;;5057857;28;20169;-90
2023/04/26 03:35:17;;;;;;;5.40;5.00;;;6.60;99.90;;;;;;5058501;28;20196;-89
2023/04/26 03:37:43;;;;;;;7.50;5.60;;;6.50;99.90;;;;;;5058489;28;20257;-89
2023/04/26 03:40:09;;;;;;;10.40;5.70;;;6.30;99.90;;;;;;5058617;28;20215;-89
2023/04/26 03:42:36;;;;;;;6.20;5.60;;;6.20;99.90;;;;;;5042170;28;20176;-89
2023/04/26 03:45:03;;;;;;;5.83;5.33;;;6.10;99.90;;;;;;5058928;28;20180;-90
2023/04/26 03:47:31;;;;;;;5.67;5.10;;;6.10;99.90;;;;;;5059557;28;20181;-90
2023/04/26 03:49:57;;;;;;;5.93;5.43;;;6.20;99.90;;;;;;5041689;28;20659;-87
2023/04/26 03:52:23;;;;;;;6.27;5.67;;;6.20;99.90;;;;;;5041812;28;20283;-89
2023/04/26 03:54:48;;;;;;;6.57;5.53;;;6.30;99.90;;;;;;5040839;28;20215;-93
2023/04/26 03:57:14;;;;;;;5.63;5.13;;;6.30;99.90;;;;;;5059532;28;20184;-90
2023/04/26 03:59:40;;;;;;;17.10;5.43;;;6.30;99.90;;;;;;5059208;28;20190;-91
2023/04/26 04:02:06;;;;;;;5.87;5.37;;;6.30;99.90;;;;;;5059311;28;20235;-89
2023/04/26 04:04:31;;;;;;;10.67;5.90;;;6.30;99.90;;;;;;5059470;28;20276;-90
2023/04/26 04:06:58;;;;;;;8.87;6.50;;;6.20;99.90;;;;;;5059391;28;20266;-91
2023/04/26 04:09:24;;;;;;;6.33;5.40;;;6.10;99.90;;;;;;5041096;28;20279;-89
2023/04/26 04:11:50;;;;;;;6.03;5.43;;;6.00;99.90;;;;;;5059551;28;20223;-90
2023/04/26 04:14:16;;;;;;;5.43;4.93;;;5.90;99.90;;;;;;5064329;28;20208;-93
2023/04/26 04:16:41;;;;;;;6.37;5.77;;;5.70;99.90;;;;;;5050675;28;20176;-93
2023/04/26 04:19:07;;;;;;;7.23;6.53;;;5.70;99.90;;;;;;5067310;28;20176;-90
2023/04/26 04:21:33;;;;;;;5.27;4.77;;;5.70;99.90;;;;;;5068390;28;20204;-90
2023/04/26 04:23:59;;;;;;;5.70;5.20;;;5.80;99.90;;;;;;5048327;28;20180;-88
2023/04/26 04:26:26;;;;;;;5.83;5.33;;;5.80;99.90;;;;;;5060157;28;20181;-91
2023/04/26 04:28:53;;;;;;;5.80;5.30;;;5.80;99.90;;;;;;5055608;28;20680;-89
2023/04/26 04:31:20;;;;;;;7.07;5.30;;;5.90;99.90;;;;;;5058208;28;20338;-92
2023/04/26 04:33:46;;;;;;;6.00;5.50;;;5.80;99.90;;;;;;5057456;28;20189;-88
2023/04/26 04:36:12;;;;;;;5.00;4.60;;;5.80;99.90;;;;;;5054980;28;20190;-90
2023/04/26 04:38:38;;;;;;;5.40;4.90;;;5.90;99.90;;;;;;5058013;28;20176;-89
2023/04/26 04:41:04;;;;;;;5.13;4.63;;;5.90;99.90;;;;;;5059801;28;20295;-89
2023/04/26 04:43:29;;;;;;;5.47;4.97;;;6.00;99.90;;;;;;5059215;28;20204;-89
2023/04/26 04:45:55;;;;;;;9.03;6.80;;;6.10;99.90;;;;;;5040054;28;20275;-88
2023/04/26 04:48:21;;;;;;;5.90;5.40;;;6.00;99.90;;;;;;5059808;28;20242;-89
2023/04/26 04:50:48;;;;;;;5.87;5.37;;;6.00;99.90;;;;;;5059893;28;20207;-90
2023/04/26 04:53:13;;;;;;;5.97;5.37;;;5.90;99.90;;;;;;5057474;28;20248;-90
2023/04/26 04:55:39;;;;;;;5.27;4.87;;;5.90;99.90;;;;;;5039258;28;20220;-89
2023/04/26 04:58:05;;;;;;;6.83;6.23;;;5.80;99.90;;;;;;5057312;28;20179;-90
2023/04/26 05:00:31;;;;;;;5.40;4.90;;;5.90;99.90;;;;;;5039620;28;20196;-87
2023/04/26 05:02:57;;;;;;;5.33;4.87;;;5.90;99.90;;;;;;5039025;28;20184;-89
2023/04/26 05:05:22;;;;;;;5.43;4.70;;;5.80;99.90;;;;;;5057994;28;20192;-87
2023/04/26 05:07:48;;;;;;;5.50;5.00;;;5.80;99.90;;;;;;5039572;28;20184;-91
2023/04/26 05:10:14;;;;;;;4.67;4.03;;;5.80;99.90;;;;;;5056566;28;20188;-90
2023/04/26 05:12:40;;;;;;;4.57;4.10;;;5.80;99.90;;;;;;5056684;28;20674;-90
2023/04/26 05:15:06;;;;;;;5.00;4.60;;;5.70;99.90;;;;;;5049951;28;20245;-90
2023/04/26 05:17:32;;;;;;;5.47;4.97;;;5.80;99.90;;;;;;5058904;28;20678;-91
2023/04/26 05:19:58;;;;;;;4.93;4.53;;;5.70;99.90;;;;;;5074324;28;20184;-88
2023/04/26 05:22:25;;;;;;;4.87;4.37;;;5.80;99.90;;;;;;5057739;28;20720;-90
2023/04/26 05:24:51;;;;;;;5.97;4.83;;;5.70;99.90;;;;;;5058822;28;20188;-88
2023/04/26 05:27:17;;;;;;;7.00;4.80;;;5.70;99.90;;;;;;5059901;28;20176;-89
2023/04/26 05:29:42;;;;;;;5.27;4.77;;;5.50;99.90;;;;;;5059086;28;20180;-90
2023/04/26 05:32:08;;;;;;;5.40;4.90;;;5.50;99.90;;;;;;5041303;28;20227;-88
2023/04/26 05:34:34;;;;;;;5.90;5.27;;;5.50;99.90;;;;;;5058659;28;20208;-89
2023/04/26 05:36:59;;;;;;;6.37;5.77;;;5.60;99.90;;;;;;5058357;28;20678;-89
2023/04/26 05:39:25;;;;;;;7.73;7.03;;;5.70;99.90;;;;;;5059714;28;20884;-88
2023/04/26 05:41:51;;;;;;;5.67;5.17;;;5.70;99.90;;;;;;5061677;28;20228;-92
2023/04/26 05:44:16;;;;;;;6.57;6.07;;;5.70;99.90;;;;;;5048761;28;20223;-88
2023/04/26 05:46:42;;;;;;;10.10;6.10;;;5.80;99.90;;;;;;5060849;28;20189;-89
2023/04/26 05:49:08;;;;;;;7.67;5.33;;;5.80;99.90;;;;;;5057919;28;20172;-89
2023/04/26 05:51:34;;;;;;;7.87;5.57;;;5.90;99.90;;;;;;5057813;28;20197;-91
2023/04/26 05:53:59;;;;;;;11.23;7.77;;;5.90;99.90;;;;;;5058954;28;20191;-89
2023/04/26 05:56:25;;;;;;;4.90;4.43;;;6.10;99.90;;;;;;5057024;28;20196;-89
2023/04/26 05:58:52;;;;;;;5.57;5.17;;;6.20;99.90;;;;;;5056171;28;20176;-89
2023/04/26 06:01:19;;;;;;;6.63;5.00;;;6.20;99.90;;;;;;5057142;28;20212;-89
2023/04/26 06:03:45;;;;;;;8.50;6.97;;;6.20;99.90;;;;;;5038898;28;20254;-88
2023/04/26 06:06:11;;;;;;;7.57;5.47;;;6.20;99.90;;;;;;5054547;28;20180;-89
2023/04/26 06:08:37;;;;;;;5.70;5.20;;;6.30;99.90;;;;;;5075672;28;20168;-90
2023/04/26 06:11:03;;;;;;;7.03;5.60;;;6.40;99.90;;;;;;5063759;28;20211;-87
2023/04/26 06:13:28;;;;;;;9.20;8.10;;;6.40;99.90;;;;;;5067546;28;20173;-92
2023/04/26 06:15:54;;;;;;;8.57;7.83;;;6.50;99.90;;;;;;5056200;28;20200;-89
2023/04/26 06:18:20;;;;;;;7.10;6.50;;;6.50;99.90;;;;;;5056223;28;20869;-89
2023/04/26 06:20:46;;;;;;;7.80;7.00;;;6.60;99.90;;;;;;5056701;28;20204;-90
2023/04/26 06:23:12;;;;;;;9.30;8.40;;;6.80;99.90;;;;;;5058642;28;20589;-90
2023/04/26 06:25:42;;;;;;;7.53;6.60;;;6.90;99.90;;;;;;5049668;28;20190;-89
2023/04/26 06:28:08;;;;;;;8.17;7.43;;;6.90;99.90;;;;;;5074389;28;20176;-89
2023/04/26 06:30:34;;;;;;;7.63;6.93;;;7.00;99.90;;;;;;5057622;28;20212;-89
2023/04/26 06:32:59;;;;;;;7.07;6.37;;;7.10;99.90;;;;;;5051458;28;20683;-92
2023/04/26 06:35:25;;;;;;;7.97;7.20;;;7.10;99.90;;;;;;5075566;28;20218;-89
2023/04/26 06:37:51;;;;;;;10.33;9.20;;;7.20;98.40;;;;;;5039254;28;20180;-89
2023/04/26 06:40:17;;;;;;;13.87;7.83;;;7.30;97.30;;;;;;5069305;28;20689;-89
2023/04/26 06:42:45;;;;;;;8.30;7.60;;;7.30;94.70;;;;;;5067707;28;20175;-90
2023/04/26 06:45:11;;;;;;;12.50;9.23;;;7.40;96.10;;;;;;5068689;28;20217;-89
2023/04/26 06:47:37;;;;;;;9.10;8.30;;;7.40;96.00;;;;;;5064660;28;20590;-89
2023/04/26 06:50:03;;;;;;;11.40;8.87;;;7.50;97.80;;;;;;5069870;28;20187;-89
2023/04/26 06:52:32;;;;;;;9.03;8.03;;;7.60;94.00;;;;;;5058854;28;20184;-89
2023/04/26 06:55:02;;;;;;;9.00;8.10;;;7.70;92.90;;;;;;5066696;28;20206;-89
2023/04/26 06:57:27;;;;;;;9.53;7.30;;;7.80;90.20;;;;;;5055562;28;20487;-90
2023/04/26 06:59:53;;;;;;;9.37;6.97;;;7.90;87.50;;;;;;5058802;28;20184;-88
2023/04/26 07:02:18;;;;;;;8.23;7.20;;;8.00;85.50;;;;;;5079794;28;20207;-89
2023/04/26 07:04:44;;;;;;;9.73;7.27;;;8.00;82.90;;;;;;5083334;28;20183;-90
2023/04/26 07:07:10;;;;;;;8.63;7.07;;;8.10;82.70;;;;;;5084199;28;20546;-90
2023/04/26 07:09:36;;;;;;;8.17;6.67;;;8.30;82.90;;;;;;5082791;28;20176;-90
2023/04/26 07:12:02;;;;;;;7.73;6.97;;;8.30;82.10;;;;;;5082687;28;20750;-86
2023/04/26 07:14:28;;;;;;;9.77;7.63;;;8.50;83.00;;;;;;5063433;28;20223;-89
2023/04/26 07:16:53;;;;;;;7.93;7.13;;;8.60;79.40;;;;;;5061040;28;20226;-89
2023/04/26 07:19:19;;;;;;;10.30;7.23;;;8.60;79.20;;;;;;5062521;28;20657;-89
2023/04/26 07:21:45;;;;;;;10.67;7.57;;;8.50;79.30;;;;;;5062412;28;20200;-89
2023/04/26 07:24:12;;;;;;;8.67;7.27;;;8.50;80.20;;;;;;5061714;28;20223;-88
2023/04/26 07:26:38;;;;;;;9.00;6.67;;;8.50;78.40;;;;;;5042049;28;20211;-89
2023/04/26 07:29:04;;;;;;;9.40;7.60;;;8.50;79.40;;;;;;5062180;28;20180;-89
2023/04/26 07:31:32;;;;;;;9.80;7.20;;;8.60;80.00;;;;;;5060744;28;20689;-87
2023/04/26 07:33:58;;;;;;;8.43;7.10;;;8.50;78.40;;;;;;5060367;28;20283;-89
2023/04/26 07:36:24;;;;;;;10.10;6.93;;;8.60;77.60;;;;;;5060217;28;20294;-89
2023/04/26 07:38:49;;;;;;;9.13;7.33;;;8.70;78.10;;;;;;5059868;28;20255;-91
2023/04/26 07:41:16;;;;;;;11.03;8.30;;;8.80;77.00;;;;;;5071512;28;20627;-91
2023/04/26 07:43:42;;;;;;;8.00;6.90;;;8.80;78.10;;;;;;5060657;28;20175;-90
2023/04/26 07:46:07;;;;;;;8.53;7.00;;;8.80;75.50;;;;;;5059190;28;20204;-91
2023/04/26 07:48:33;;;;;;;8.77;7.13;;;8.80;78.10;;;;;;5041348;28;20669;-90
2023/04/26 07:51:10;;;;;;;8.97;6.37;;;9.10;77.20;;;;;;5060283;28;20245;-91
2023/04/26 07:53:36;;;;;;;9.13;7.27;;;9.20;74.00;;;;;;5060983;28;20191;-90
2023/04/26 07:56:07;;;;;;;8.33;7.20;;;9.20;75.10;;;;;;5060289;28;20211;-89
2023/04/26 07:58:34;;;;;;;7.23;6.53;;;9.20;73.00;;;;;;5061178;28;20187;-89
2023/04/26 08:01:00;;;;;;;9.23;7.40;;;9.30;72.30;;;;;;5060667;28;20235;-89
2023/04/26 08:03:26;;;;;;;10.23;7.30;;;9.40;74.70;;;;;;5062955;28;20172;-89
2023/04/26 08:05:52;;;;;;;8.27;6.90;;;9.60;75.80;;;;;;5059475;28;20180;-91
2023/04/26 08:08:18;;;;;;;9.20;6.63;;;9.60;73.80;;;;;;5059360;28;20181;-89
2023/04/26 08:10:44;;;;;;;10.03;7.27;;;9.70;72.10;;;;;;5059941;28;20228;-90
2023/04/26 08:13:10;;;;;;;11.47;7.30;;;9.80;72.50;;;;;;5059643;28;20197;-89
2023/04/26 08:15:36;;;;;;;8.87;7.23;;;10.00;71.50;;;;;;5060407;28;20265;-89
2023/04/26 08:18:02;;;;;;;7.80;7.00;;;10.00;71.20;;;;;;5060358;28;20531;-89
2023/04/26 08:20:27;;;;;;;9.90;6.70;;;10.10;69.40;;;;;;5062146;28;20226;-90
2023/04/26 08:22:57;;;;;;;7.80;7.00;;;10.40;68.00;;;;;;5063508;28;20523;-90
2023/04/26 08:25:23;;;;;;;10.43;6.77;;;10.30;66.70;;;;;;5042908;28;20560;-90
2023/04/26 08:27:49;;;;;;;9.27;6.37;;;10.40;65.00;;;;;;5061568;28;20255;-90
2023/04/26 08:30:14;;;;;;;7.50;6.70;;;10.40;67.10;;;;;;5060978;28;20184;-90
2023/04/26 08:32:40;;;;;;;8.47;6.57;;;10.50;63.70;;;;;;5061048;28;20188;-90
2023/04/26 08:35:06;;;;;;;8.33;6.03;;;10.70;64.70;;;;;;5060337;28;20261;-89
2023/04/26 08:37:32;;;;;;;8.70;6.63;;;10.70;61.30;;;;;;5060246;28;20269;-90
2023/04/26 08:39:57;;;;;;;11.37;6.80;;;10.80;62.50;;;;;;5042387;28;20200;-89
2023/04/26 08:42:26;;;;;;;9.50;6.50;;;11.00;64.00;;;;;;5078463;28;20212;-91
2023/04/26 08:44:53;;;;;;;6.03;5.53;;;11.10;61.60;;;;;;5068481;28;20261;-89
2023/04/26 08:47:35;;;;;;;8.60;6.00;;;11.20;58.60;;;;;;5060332;28;20190;-91
2023/04/26 08:50:03;;;;;;;8.43;6.23;;;11.20;58.40;;;;;;5060736;28;20169;-90
2023/04/26 08:52:30;;;;;;;9.37;5.80;;;11.30;58.80;;;;;;5061191;28;20218;-93
2023/04/26 08:54:57;;;;;;;7.20;5.67;;;11.40;58.50;;;;;;5061343;28;20247;-91
2023/04/26 08:57:26;;;;;;;5.47;4.97;;;11.40;56.90;;;;;;5059580;28;20262;-89
2023/04/26 08:59:52;;;;;;;7.53;4.57;;;11.60;56.00;;;;;;5060516;28;20211;-89
2023/04/26 09:02:20;;;;;;;6.73;5.90;;;11.60;53.40;;;;;;5059785;28;20224;-92
2023/04/26 09:04:47;;;;;;;8.10;5.37;;;11.60;55.10;;;;;;5058640;28;20215;-90
2023/04/26 09:07:25;;;;;;;6.97;5.10;;;11.70;54.00;;;;;;5059794;28;20676;-91
2023/04/26 09:09:53;;;;;;;7.63;5.10;;;11.60;53.80;;;;;;5058987;28;20183;-91
2023/04/26 09:12:20;;;;;;;6.73;5.10;;;11.50;55.30;;;;;;5058068;28;20201;-90
2023/04/26 09:14:46;;;;;;;5.57;4.63;;;11.80;54.00;;;;;;5057843;28;20210;-91
2023/04/26 09:17:25;;;;;;;9.23;6.40;;;11.90;52.10;;;;;;5060246;28;20688;-91
2023/04/26 09:19:51;;;;;;;8.23;5.43;;;12.00;55.70;;;;;;5060331;28;20196;-90
2023/04/26 09:22:36;;;;;;;7.13;5.77;;;11.80;54.30;;;;;;5025577;28;20211;-89
2023/04/26 09:25:04;;;;;;;6.57;5.90;;;11.90;55.60;;;;;;5059550;28;20257;-90
2023/04/26 09:27:40;;;;;;;7.27;5.20;;;12.00;53.40;;;;;;5058544;28;20202;-90
2023/04/26 09:30:14;;;;;;;6.83;5.43;;;12.00;51.90;;;;;;5040190;28;20233;-92
2023/04/26 09:32:46;;;;;;;8.73;5.50;;;12.40;50.10;;;;;;5040944;28;20183;-91
2023/04/26 09:35:21;;;;;;;7.87;5.87;;;12.80;50.90;;;;;;5057166;28;20215;-91
2023/04/26 09:37:59;;;;;;;8.07;5.60;;;13.10;49.70;;;;;;5058470;28;20221;-92
2023/04/26 09:40:26;;;;;;;6.40;4.90;;;13.00;49.00;;;;;;5061561;28;20199;-89
2023/04/26 09:42:57;;;;;;;6.00;5.30;;;12.80;47.40;;;;;;5060902;28;20297;-90
2023/04/26 09:45:23;;;;;;;7.87;4.77;;;12.90;46.20;;;;;;5059350;28;20187;-90
2023/04/26 09:47:50;;;;;;;6.80;4.80;;;13.00;47.80;;;;;;5064039;28;20181;-90
2023/04/26 09:50:29;;;;;;;6.20;4.67;;;13.00;45.00;;;;;;5063763;28;20183;-90
2023/04/26 09:52:55;;;;;;;5.37;4.67;;;13.20;44.00;;;;;;5059059;28;20169;-91
2023/04/26 09:55:29;;;;;;;10.40;5.97;;;13.40;44.60;;;;;;5058644;28;20204;-91
2023/04/26 09:57:57;;;;;;;7.53;5.57;;;13.60;47.00;;;;;;5057732;28;20232;-90
2023/04/26 10:00:24;;;;;;;6.67;5.40;;;13.60;45.50;;;;;;5056811;28;20206;-90
2023/04/26 10:02:54;;;;;;;5.47;4.87;;;13.80;41.30;;;;;;5059313;28;20178;-90
2023/04/26 10:05:20;;;;;;;6.10;4.80;;;14.00;41.70;;;;;;5057432;28;20184;-91
2023/04/26 10:07:47;;;;;;;7.77;5.80;;;14.10;39.80;;;;;;5056965;28;20234;-90
2023/04/26 10:10:13;;;;;;;5.53;5.03;;;14.10;40.00;;;;;;5056855;28;20246;-89
2023/04/26 10:12:42;;;;;;;5.40;4.63;;;14.20;39.10;;;;;;5056503;28;20877;-90
2023/04/26 10:15:09;;;;;;;6.83;4.83;;;14.10;37.70;;;;;;5058185;28;20601;-86
2023/04/26 10:17:38;;;;;;;7.17;4.73;;;14.40;34.40;;;;;;5040553;28;20260;-90
2023/04/26 10:20:09;;;;;;;5.00;4.50;;;14.50;38.70;;;;;;5040436;28;20198;-91
2023/04/26 10:22:42;;;;;;;5.50;4.93;;;14.40;37.50;;;;;;5058749;28;20178;-89
2023/04/26 10:25:10;;;;;;;6.43;4.30;;;14.40;38.40;;;;;;5040473;28;20558;-92
2023/04/26 10:27:45;;;;;;;6.23;4.23;;;14.70;34.20;;;;;;5058896;28;20184;-90
2023/04/26 10:30:16;;;;;;;5.17;3.93;;;15.00;35.50;;;;;;5058395;28;20226;-90
2023/04/26 10:32:54;;;;;;;7.10;4.07;;;15.20;36.00;;;;;;5057729;28;20193;-90
2023/04/26 10:35:20;;;;;;;5.13;4.47;;;15.30;37.30;;;;;;5057277;28;20231;-92
2023/04/26 10:37:58;;;;;;;5.83;4.43;;;15.30;36.80;;;;;;5058616;28;20176;-90
2023/04/26 10:40:38;;;;;;;5.00;4.60;;;15.40;36.00;;;;;;5063192;28;20263;-91
2023/04/26 10:43:15;;;;;;;7.10;4.07;;;15.60;37.20;;;;;;5057984;28;20179;-89
2023/04/26 10:45:42;;;;;;;5.57;4.47;;;15.50;37.00;;;;;;5067387;28;20193;-89
2023/04/26 10:48:18;;;;;;;8.60;3.87;;;15.50;36.50;;;;;;5063008;28;20181;-91
2023/04/26 10:51:11;;;;;;;4.77;3.90;;;15.40;34.80;;;;;;5056770;28;20209;-89
2023/04/26 10:53:45;;;;;;;5.73;3.70;;;15.40;35.40;;;;;;5059102;28;20243;-90
2023/04/26 10:56:31;;;;;;;7.10;3.93;;;15.80;35.70;;;;;;5037233;28;20272;-90
2023/04/26 10:59:26;;;;;;;5.73;4.20;;;16.20;35.80;;;;;;5020722;28;20210;-90
2023/04/26 11:01:51;;;;;;;4.33;3.93;;;16.40;36.30;;;;;;5018065;28;20217;-90
2023/04/26 11:04:17;;;;;;;4.77;3.80;;;16.60;34.20;;;;;;5065987;28;20180;-89
2023/04/26 11:06:50;;;;;;;4.70;3.50;;;16.30;33.60;;;;;;5058085;28;20191;-90
2023/04/26 11:09:36;;;;;;;6.20;3.80;;;16.10;33.70;;;;;;5060288;28;20198;-91
2023/04/26 11:12:05;;;;;;;5.77;4.40;;;16.10;34.10;;;;;;5057685;28;20693;-92
2023/04/26 11:14:33;;;;;;;6.53;4.53;;;16.10;33.50;;;;;;5057653;28;20207;-90
2023/04/26 11:17:05;;;;;;;5.90;4.33;;;16.20;34.70;;;;;;5040588;28;20215;-91
2023/04/26 11:19:31;;;;;;;4.97;4.30;;;16.50;32.80;;;;;;5059261;28;20161;-89
2023/04/26 11:22:01;;;;;;;5.43;4.10;;;16.30;33.20;;;;;;5060768;28;20747;-90
2023/04/26 11:24:30;;;;;;;7.37;4.00;;;16.60;31.50;;;;;;5058094;28;20185;-90
2023/04/26 11:26:57;;;;;;;4.33;3.90;;;16.50;32.30;;;;;;5041220;28;20193;-91
2023/04/26 11:29:24;;;;;;;5.20;3.93;;;17.00;32.10;;;;;;5059653;28;20190;-90
2023/04/26 11:31:52;;;;;;;6.33;3.63;;;17.10;31.50;;;;;;5060919;28;20211;-89
2023/04/26 11:34:38;;;;;;;6.23;4.27;;;17.10;33.20;;;;;;5058607;28;20211;-90
2023/04/26 11:37:05;;;;;;;5.53;4.40;;;17.20;31.70;;;;;;5041433;28;20181;-90
2023/04/26 11:39:35;;;;;;;6.40;4.50;;;17.70;31.50;;;;;;5058832;28;20183;-89
2023/04/26 11:42:09;;;;;;;6.95;4.82;;;18.10;30.30;;;;;;5073730;28;20196;-92
2023/04/26 11:44:36;;;;;;;5.68;5.10;;;17.90;32.80;;;;;;5058900;28;20184;-90
2023/04/26 11:47:03;;;;;;;5.13;4.30;;;18.10;31.10;;;;;;5057578;28;20189;-89
2023/04/26 11:49:30;;;;;;;5.10;4.60;;;18.20;30.30;;;;;;5058056;28;20183;-91
2023/04/26 11:51:56;;;;;;;5.10;4.20;;;17.80;31.70;;;;;;5061852;28;20205;-91
2023/04/26 11:54:29;;;;;;;4.87;4.33;;;17.70;30.60;;;;;;5062003;28;20224;-92
2023/04/26 11:56:58;;;;;;;5.10;4.60;;;17.10;31.70;;;;;;5060958;28;20182;-90
2023/04/26 11:59:25;;;;;;;4.60;4.20;;;17.10;32.20;;;;;;5043054;28;20201;-90
2023/04/26 12:01:52;;;;;;;10.60;4.50;;;17.00;33.30;;;;;;5063972;28;20741;-90
2023/04/26 12:04:17;;;;;;;4.93;4.53;;;16.50;32.60;;;;;;5063836;28;20175;-89
2023/04/26 12:06:45;;;;;;;7.73;5.37;;;16.50;33.90;;;;;;5043710;28;20182;-90
2023/04/26 12:09:11;;;;;;;6.57;4.50;;;16.40;33.30;;;;;;5047930;28;20179;-90
2023/04/26 12:11:38;;;;;;;4.87;4.23;;;16.50;32.50;;;;;;5064683;28;20199;-90
2023/04/26 12:14:04;;;;;;;8.70;5.07;;;16.70;32.70;;;;;;5064271;28;20181;-89
2023/04/26 12:16:31;;;;;;;5.23;4.73;;;16.50;34.80;;;;;;5063855;28;20195;-89
2023/04/26 12:18:56;;;;;;;4.83;4.43;;;16.40;33.00;;;;;;5063083;28;20190;-89
2023/04/26 12:21:26;;;;;;;5.17;4.67;;;16.80;32.50;;;;;;5062689;28;20204;-88
2023/04/26 12:23:52;;;;;;;5.13;4.70;;;17.20;32.10;;;;;;5063449;28;20172;-89
2023/04/26 12:26:19;;;;;;;5.77;4.43;;;17.20;32.50;;;;;;5046065;28;20219;-89
2023/04/26 12:28:45;;;;;;;4.90;4.37;;;17.10;31.90;;;;;;5064173;28;20214;-89
2023/04/26 12:31:11;;;;;;;4.60;4.20;;;17.00;32.50;;;;;;5063076;28;20210;-89
2023/04/26 12:33:36;;;;;;;4.70;4.30;;;17.10;32.60;;;;;;5064897;28;20178;-88
2023/04/26 12:36:10;;;;;;;5.20;4.57;;;17.40;32.20;;;;;;5062180;28;20201;-90
2023/04/26 12:38:36;;;;;;;5.03;4.60;;;17.60;30.80;;;;;;5045703;28;20183;-89
2023/04/26 12:41:02;;;;;;;4.93;4.47;;;17.70;30.30;;;;;;5043880;28;20202;-92
2023/04/26 12:43:28;;;;;;;6.30;5.13;;;17.80;30.30;;;;;;5061334;28;20183;-89
2023/04/26 12:45:54;;;;;;;6.00;4.80;;;18.30;30.50;;;;;;5062859;28;20185;-90
2023/04/26 12:48:20;;;;;;;5.65;4.32;;;18.10;30.10;;;;;;5061759;28;20187;-92
2023/04/26 12:50:45;;;;;;;4.85;4.45;;;18.20;29.90;;;;;;5060512;28;20196;-90
2023/04/26 12:53:11;;;;;;;5.38;4.88;;;18.30;30.90;;;;;;5059965;28;20229;-90